sensor_id;sensor_type;location;lat;lon;timestamp;pressure;altitude;pressure_sealevel;temperature;humidity
25658;BME280;13517;59.320;18.042;2023-09-19T00:00:21;99893.09;;;15.19;100.00
25658;BME280;13517;59.320;18.042;2023-09-19T00:02:53;99889.38;;;15.20;100.00
25658;BME280;13517;59.320;18.042;2023-09-19T00:05:19;99885.94;;;15.18;100.00
25658;BME280;13517;59.320;18.042;2023-09-19T00:07:50;99862.22;;;15.10;100.00
25658;BME280;13517;59.320;18.042;2023-09-19T00:10:16;99848.47;;;15.11;100.00
25658;BME280;13517;59.320;18.042;2023-09-19T00:12:45;99844.41;;;15.16;100.00
25658;BME280;13517;59.320;18.042;2023-09-19T00:15:10;99804.72;;;14.95;100.00
25658;BME280;13517;59.320;18.042;2023-09-19T00:17:36;99858.06;;;15.34;100.00
25658;BME280;13517;59.320;18.042;2023-09-19T00:20:02;99858.94;;;15.34;100.00
25658;BME280;13517;59.320;18.042;2023-09-19T00:22:32;99833.34;;;15.27;100.00
25658;BME280;13517;59.320;18.042;2023-09-19T00:24:57;99850.44;;;15.37;100.00
25658;BME280;13517;59.320;18.042;2023-09-19T00:27:22;99801.06;;;15.14;100.00
25658;BME280;13517;59.320;18.042;2023-09-19T00:29:48;99828.31;;;15.32;100.00
25658;BME280;13517;59.320;18.042;2023-09-19T00:32:13;99827.16;;;15.35;100.00
25658;BME280;13517;59.320;18.042;2023-09-19T00:34:39;99832.34;;;15.46;100.00
25658;BME280;13517;59.320;18.042;2023-09-19T00:37:04;99804.66;;;15.33;100.00
25658;BME280;13517;59.320;18.042;2023-09-19T00:39:29;99797.38;;;15.33;100.00
25658;BME280;13517;59.320;18.042;2023-09-19T00:41:57;99793.78;;;15.33;100.00
25658;BME280;13517;59.320;18.042;2023-09-19T00:44:22;99814.41;;;15.53;100.00
25658;BME280;13517;59.320;18.042;2023-09-19T00:46:49;99796.97;;;15.46;100.00
25658;BME280;13517;59.320;18.042;2023-09-19T00:49:15;99805.47;;;15.61;100.00
25658;BME280;13517;59.320;18.042;2023-09-19T00:51:41;99801.72;;;15.62;100.00
25658;BME280;13517;59.320;18.042;2023-09-19T00:54:07;99778.88;;;15.55;100.00
25658;BME280;13517;59.320;18.042;2023-09-19T00:56:33;99776.00;;;15.57;100.00
25658;BME280;13517;59.320;18.042;2023-09-19T00:58:59;99771.09;;;15.60;100.00
25658;BME280;13517;59.320;18.042;2023-09-19T01:01:24;99751.81;;;15.53;100.00
25658;BME280;13517;59.320;18.042;2023-09-19T01:03:50;99782.13;;;15.77;100.00
25658;BME280;13517;59.320;18.042;2023-09-19T01:06:16;99784.16;;;15.75;100.00
25658;BME280;13517;59.320;18.042;2023-09-19T01:08:42;99771.72;;;15.72;100.00
25658;BME280;13517;59.320;18.042;2023-09-19T01:11:25;99745.59;;;15.61;100.00
25658;BME280;13517;59.320;18.042;2023-09-19T01:14:04;99744.97;;;15.68;100.00
25658;BME280;13517;59.320;18.042;2023-09-19T01:16:38;99728.44;;;15.69;100.00
25658;BME280;13517;59.320;18.042;2023-09-19T01:22:00;99726.97;;;15.75;100.00
25658;BME280;13517;59.320;18.042;2023-09-19T01:28:06;99729.63;;;15.85;100.00
25658;BME280;13517;59.320;18.042;2023-09-19T01:30:40;99678.22;;;15.63;100.00
25658;BME280;13517;59.320;18.042;2023-09-19T01:33:08;99722.53;;;15.92;100.00
25658;BME280;13517;59.320;18.042;2023-09-19T01:35:38;99718.66;;;15.95;100.00
25658;BME280;13517;59.320;18.042;2023-09-19T01:38:07;99704.72;;;15.98;100.00
25658;BME280;13517;59.320;18.042;2023-09-19T01:40:41;99680.13;;;15.89;100.00
25658;BME280;13517;59.320;18.042;2023-09-19T01:48:52;99671.22;;;15.87;100.00
25658;BME280;13517;59.320;18.042;2023-09-19T01:54:32;99673.41;;;16.02;100.00
25658;BME280;13517;59.320;18.042;2023-09-19T01:57:07;99646.28;;;15.92;100.00
25658;BME280;13517;59.320;18.042;2023-09-19T01:59:43;99619.81;;;15.84;100.00
25658;BME280;13517;59.320;18.042;2023-09-19T02:02:10;99620.50;;;15.86;100.00
25658;BME280;13517;59.320;18.042;2023-09-19T02:04:36;99585.03;;;15.70;100.00
25658;BME280;13517;59.320;18.042;2023-09-19T02:07:02;99609.31;;;15.89;100.00
25658;BME280;13517;59.320;18.042;2023-09-19T02:09:28;99605.56;;;15.90;100.00
25658;BME280;13517;59.320;18.042;2023-09-19T02:11:53;99621.19;;;16.06;100.00
25658;BME280;13517;59.320;18.042;2023-09-19T02:14:21;99621.50;;;16.12;100.00
25658;BME280;13517;59.320;18.042;2023-09-19T02:16:47;99628.69;;;16.13;100.00
25658;BME280;13517;59.320;18.042;2023-09-19T02:19:15;99603.25;;;15.96;100.00
25658;BME280;13517;59.320;18.042;2023-09-19T02:21:41;99610.44;;;16.05;100.00
25658;BME280;13517;59.320;18.042;2023-09-19T02:24:06;99607.44;;;16.16;100.00
25658;BME280;13517;59.320;18.042;2023-09-19T02:26:33;99587.34;;;16.17;100.00
25658;BME280;13517;59.320;18.042;2023-09-19T02:29:02;99558.53;;;16.06;100.00
25658;BME280;13517;59.320;18.042;2023-09-19T02:31:30;99567.56;;;16.15;100.00
25658;BME280;13517;59.320;18.042;2023-09-19T02:33:56;99548.28;;;16.00;100.00
25658;BME280;13517;59.320;18.042;2023-09-19T02:36:22;99579.31;;;16.16;100.00
25658;BME280;13517;59.320;18.042;2023-09-19T02:38:49;99538.75;;;16.04;100.00
25658;BME280;13517;59.320;18.042;2023-09-19T02:41:14;99559.06;;;16.18;100.00
25658;BME280;13517;59.320;18.042;2023-09-19T02:43:40;99520.38;;;15.98;100.00
25658;BME280;13517;59.320;18.042;2023-09-19T02:46:05;99526.00;;;16.13;100.00
25658;BME280;13517;59.320;18.042;2023-09-19T02:48:30;99496.38;;;16.02;100.00
25658;BME280;13517;59.320;18.042;2023-09-19T02:50:57;99534.56;;;16.18;100.00
25658;BME280;13517;59.320;18.042;2023-09-19T02:53:22;99511.72;;;16.11;100.00
25658;BME280;13517;59.320;18.042;2023-09-19T02:55:49;99525.50;;;16.18;100.00
25658;BME280;13517;59.320;18.042;2023-09-19T02:58:15;99482.91;;;16.00;100.00
25658;BME280;13517;59.320;18.042;2023-09-19T03:00:41;99515.31;;;16.20;100.00
25658;BME280;13517;59.320;18.042;2023-09-19T03:03:12;99457.38;;;15.93;100.00
25658;BME280;13517;59.320;18.042;2023-09-19T03:05:38;99491.47;;;16.14;100.00
25658;BME280;13517;59.320;18.042;2023-09-19T03:08:04;99464.53;;;16.02;100.00
25658;BME280;13517;59.320;18.042;2023-09-19T03:10:30;99429.59;;;15.89;100.00
25658;BME280;13517;59.320;18.042;2023-09-19T03:12:56;99462.03;;;16.17;100.00
25658;BME280;13517;59.320;18.042;2023-09-19T03:15:22;99426.22;;;15.96;100.00
25658;BME280;13517;59.320;18.042;2023-09-19T03:17:49;99445.31;;;16.12;100.00
25658;BME280;13517;59.320;18.042;2023-09-19T03:20:15;99443.09;;;16.16;100.00
25658;BME280;13517;59.320;18.042;2023-09-19T03:22:44;99425.91;;;16.15;100.00
25658;BME280;13517;59.320;18.042;2023-09-19T03:25:10;99404.44;;;16.12;100.00
25658;BME280;13517;59.320;18.042;2023-09-19T03:27:37;99397.81;;;16.15;100.00
25658;BME280;13517;59.320;18.042;2023-09-19T03:30:04;99395.59;;;16.10;100.00
25658;BME280;13517;59.320;18.042;2023-09-19T03:32:37;99390.47;;;16.07;100.00
25658;BME280;13517;59.320;18.042;2023-09-19T03:35:08;99353.88;;;16.01;100.00
25658;BME280;13517;59.320;18.042;2023-09-19T03:37:42;99318.59;;;15.66;100.00
25658;BME280;13517;59.320;18.042;2023-09-19T03:40:09;99370.06;;;16.11;100.00
25658;BME280;13517;59.320;18.042;2023-09-19T03:42:41;99337.38;;;15.95;100.00
25658;BME280;13517;59.320;18.042;2023-09-19T03:45:08;99364.09;;;16.08;100.00
25658;BME280;13517;59.320;18.042;2023-09-19T03:47:38;99354.03;;;16.08;100.00
25658;BME280;13517;59.320;18.042;2023-09-19T03:50:05;99331.94;;;15.95;100.00
25658;BME280;13517;59.320;18.042;2023-09-19T03:52:30;99337.38;;;15.95;100.00
25658;BME280;13517;59.320;18.042;2023-09-19T03:54:55;99358.81;;;16.06;100.00
25658;BME280;13517;59.320;18.042;2023-09-19T03:57:21;99325.41;;;15.87;100.00
25658;BME280;13517;59.320;18.042;2023-09-19T03:59:46;99325.91;;;15.83;100.00
25658;BME280;13517;59.320;18.042;2023-09-19T04:02:13;99332.91;;;15.85;100.00
25658;BME280;13517;59.320;18.042;2023-09-19T04:04:50;99357.78;;;16.07;100.00
25658;BME280;13517;59.320;18.042;2023-09-19T04:07:17;99351.66;;;15.97;100.00
25658;BME280;13517;59.320;18.042;2023-09-19T04:09:42;99325.75;;;15.84;100.00
25658;BME280;13517;59.320;18.042;2023-09-19T04:12:08;99348.28;;;16.03;100.00
25658;BME280;13517;59.320;18.042;2023-09-19T04:14:36;99336.69;;;16.01;100.00
25658;BME280;13517;59.320;18.042;2023-09-19T04:17:02;99335.09;;;15.90;100.00
25658;BME280;13517;59.320;18.042;2023-09-19T04:19:28;99354.75;;;16.02;100.00
25658;BME280;13517;59.320;18.042;2023-09-19T04:21:54;99364.63;;;16.03;100.00
25658;BME280;13517;59.320;18.042;2023-09-19T04:24:19;99355.75;;;16.01;100.00
25658;BME280;13517;59.320;18.042;2023-09-19T04:26:45;99343.81;;;15.93;100.00
25658;BME280;13517;59.320;18.042;2023-09-19T04:29:10;99332.25;;;15.91;100.00
25658;BME280;13517;59.320;18.042;2023-09-19T04:31:38;99290.34;;;15.59;100.00
25658;BME280;13517;59.320;18.042;2023-09-19T04:34:06;99311.47;;;15.74;100.00
25658;BME280;13517;59.320;18.042;2023-09-19T04:36:34;99338.34;;;15.85;100.00
25658;BME280;13517;59.320;18.042;2023-09-19T04:39:05;99334.78;;;15.85;100.00
25658;BME280;13517;59.320;18.042;2023-09-19T04:41:30;99321.13;;;15.76;100.00
25658;BME280;13517;59.320;18.042;2023-09-19T04:43:56;99298.69;;;15.74;100.00
25658;BME280;13517;59.320;18.042;2023-09-19T04:46:21;99317.94;;;15.89;100.00
25658;BME280;13517;59.320;18.042;2023-09-19T04:48:46;99309.78;;;15.98;100.00
25658;BME280;13517;59.320;18.042;2023-09-19T04:51:12;99298.22;;;16.04;100.00
25658;BME280;13517;59.320;18.042;2023-09-19T04:53:38;99299.41;;;16.01;100.00
25658;BME280;13517;59.320;18.042;2023-09-19T04:56:04;99278.47;;;15.93;100.00
25658;BME280;13517;59.320;18.042;2023-09-19T04:58:31;99273.34;;;16.07;100.00
25658;BME280;13517;59.320;18.042;2023-09-19T05:00:57;99291.06;;;16.19;100.00
25658;BME280;13517;59.320;18.042;2023-09-19T05:03:22;99286.97;;;16.15;100.00
25658;BME280;13517;59.320;18.042;2023-09-19T05:05:48;99290.91;;;16.21;100.00
25658;BME280;13517;59.320;18.042;2023-09-19T05:08:14;99263.16;;;16.09;100.00
25658;BME280;13517;59.320;18.042;2023-09-19T05:10:40;99263.31;;;16.08;100.00
25658;BME280;13517;59.320;18.042;2023-09-19T05:13:06;99282.88;;;16.19;100.00
25658;BME280;13517;59.320;18.042;2023-09-19T05:15:33;99268.75;;;16.16;100.00
25658;BME280;13517;59.320;18.042;2023-09-19T05:17:59;99240.00;;;16.05;100.00
25658;BME280;13517;59.320;18.042;2023-09-19T05:20:24;99273.53;;;16.22;100.00
25658;BME280;13517;59.320;18.042;2023-09-19T05:23:07;99263.81;;;16.19;100.00
25658;BME280;13517;59.320;18.042;2023-09-19T05:25:39;99248.66;;;16.25;100.00
25658;BME280;13517;59.320;18.042;2023-09-19T05:28:06;99220.41;;;16.10;100.00
25658;BME280;13517;59.320;18.042;2023-09-19T05:30:33;99243.91;;;16.27;100.00
25658;BME280;13517;59.320;18.042;2023-09-19T05:32:58;99232.81;;;16.29;100.00
25658;BME280;13517;59.320;18.042;2023-09-19T05:35:25;99207.47;;;16.20;100.00
25658;BME280;13517;59.320;18.042;2023-09-19T05:37:51;99207.97;;;16.15;100.00
25658;BME280;13517;59.320;18.042;2023-09-19T05:40:17;99219.88;;;16.31;100.00
25658;BME280;13517;59.320;18.042;2023-09-19T05:42:43;99224.94;;;16.42;100.00
25658;BME280;13517;59.320;18.042;2023-09-19T05:45:09;99221.50;;;16.48;100.00
25658;BME280;13517;59.320;18.042;2023-09-19T05:47:39;99221.84;;;16.54;100.00
25658;BME280;13517;59.320;18.042;2023-09-19T05:50:06;99205.00;;;16.50;100.00
25658;BME280;13517;59.320;18.042;2023-09-19T05:52:33;99179.47;;;16.43;100.00
25658;BME280;13517;59.320;18.042;2023-09-19T05:54:58;99178.78;;;16.49;100.00
25658;BME280;13517;59.320;18.042;2023-09-19T05:57:23;99210.88;;;16.70;100.00
25658;BME280;13517;59.320;18.042;2023-09-19T05:59:50;99185.00;;;16.58;100.00
25658;BME280;13517;59.320;18.042;2023-09-19T06:02:15;99187.56;;;16.59;100.00
25658;BME280;13517;59.320;18.042;2023-09-19T06:04:41;99196.41;;;16.70;100.00
25658;BME280;13517;59.320;18.042;2023-09-19T06:07:06;99206.06;;;16.81;100.00
25658;BME280;13517;59.320;18.042;2023-09-19T06:09:32;99185.50;;;16.70;100.00
25658;BME280;13517;59.320;18.042;2023-09-19T06:11:58;99197.34;;;16.85;100.00
25658;BME280;13517;59.320;18.042;2023-09-19T06:14:25;99170.34;;;16.67;100.00
25658;BME280;13517;59.320;18.042;2023-09-19T06:16:50;99212.13;;;16.91;100.00
25658;BME280;13517;59.320;18.042;2023-09-19T06:19:19;99209.25;;;16.93;100.00
25658;BME280;13517;59.320;18.042;2023-09-19T06:21:48;99189.00;;;16.87;100.00
25658;BME280;13517;59.320;18.042;2023-09-19T06:24:14;99203.91;;;16.99;100.00
25658;BME280;13517;59.320;18.042;2023-09-19T06:26:40;99188.06;;;17.03;100.00
25658;BME280;13517;59.320;18.042;2023-09-19T06:29:05;99183.97;;;17.07;100.00
25658;BME280;13517;59.320;18.042;2023-09-19T06:31:33;99155.91;;;16.90;100.00
25658;BME280;13517;59.320;18.042;2023-09-19T06:33:58;99173.38;;;17.04;100.00
25658;BME280;13517;59.320;18.042;2023-09-19T06:36:24;99154.69;;;16.93;100.00
25658;BME280;13517;59.320;18.042;2023-09-19T06:38:49;99166.25;;;16.95;100.00
25658;BME280;13517;59.320;18.042;2023-09-19T06:41:16;99163.00;;;16.99;100.00
25658;BME280;13517;59.320;18.042;2023-09-19T06:43:42;99164.69;;;17.00;100.00
25658;BME280;13517;59.320;18.042;2023-09-19T06:46:08;99148.88;;;16.96;100.00
25658;BME280;13517;59.320;18.042;2023-09-19T06:48:33;99172.81;;;17.17;100.00
25658;BME280;13517;59.320;18.042;2023-09-19T06:50:59;99165.19;;;17.12;100.00
25658;BME280;13517;59.320;18.042;2023-09-19T06:53:33;99175.66;;;17.24;100.00
25658;BME280;13517;59.320;18.042;2023-09-19T06:56:00;99163.94;;;17.15;100.00
25658;BME280;13517;59.320;18.042;2023-09-19T06:58:25;99155.81;;;17.07;100.00
25658;BME280;13517;59.320;18.042;2023-09-19T07:00:51;99178.13;;;17.10;100.00
25658;BME280;13517;59.320;18.042;2023-09-19T07:03:16;99148.25;;;16.85;100.00
25658;BME280;13517;59.320;18.042;2023-09-19T07:05:47;99170.88;;;17.02;100.00
25658;BME280;13517;59.320;18.042;2023-09-19T07:08:13;99171.00;;;17.01;100.00
25658;BME280;13517;59.320;18.042;2023-09-19T07:10:40;99159.44;;;16.99;100.00
25658;BME280;13517;59.320;18.042;2023-09-19T07:13:15;99158.56;;;16.98;100.00
25658;BME280;13517;59.320;18.042;2023-09-19T07:15:43;99156.50;;;17.00;100.00
25658;BME280;13517;59.320;18.042;2023-09-19T07:18:13;99157.53;;;16.99;100.00
25658;BME280;13517;59.320;18.042;2023-09-19T07:20:40;99129.00;;;16.87;100.00
25658;BME280;13517;59.320;18.042;2023-09-19T07:23:18;99149.34;;;16.99;100.00
25658;BME280;13517;59.320;18.042;2023-09-19T07:25:44;99126.94;;;16.89;100.00
25658;BME280;13517;59.320;18.042;2023-09-19T07:28:09;99143.06;;;16.99;100.00
25658;BME280;13517;59.320;18.042;2023-09-19T07:30:38;99110.63;;;16.81;100.00
25658;BME280;13517;59.320;18.042;2023-09-19T07:33:05;99116.69;;;16.91;100.00
25658;BME280;13517;59.320;18.042;2023-09-19T07:35:31;99130.47;;;16.98;100.00
25658;BME280;13517;59.320;18.042;2023-09-19T07:37:56;99117.66;;;16.98;100.00
25658;BME280;13517;59.320;18.042;2023-09-19T07:40:23;99120.06;;;17.01;100.00
25658;BME280;13517;59.320;18.042;2023-09-19T07:42:52;99116.09;;;17.04;100.00
25658;BME280;13517;59.320;18.042;2023-09-19T07:45:17;99073.28;;;16.81;100.00
25658;BME280;13517;59.320;18.042;2023-09-19T07:47:47;99117.63;;;17.07;100.00
25658;BME280;13517;59.320;18.042;2023-09-19T07:50:17;99106.72;;;17.07;100.00
25658;BME280;13517;59.320;18.042;2023-09-19T07:52:44;99084.06;;;17.06;100.00
25658;BME280;13517;59.320;18.042;2023-09-19T07:55:10;99094.00;;;17.22;100.00
25658;BME280;13517;59.320;18.042;2023-09-19T07:57:37;99055.91;;;17.06;100.00
25658;BME280;13517;59.320;18.042;2023-09-19T08:00:03;99104.09;;;17.37;100.00
25658;BME280;13517;59.320;18.042;2023-09-19T08:02:34;99077.56;;;17.31;100.00
25658;BME280;13517;59.320;18.042;2023-09-19T08:04:59;99088.88;;;17.42;100.00
25658;BME280;13517;59.320;18.042;2023-09-19T08:07:26;99056.38;;;17.33;100.00
25658;BME280;13517;59.320;18.042;2023-09-19T08:09:51;99101.69;;;17.57;100.00
25658;BME280;13517;59.320;18.042;2023-09-19T08:12:17;99074.28;;;17.50;100.00
25658;BME280;13517;59.320;18.042;2023-09-19T08:14:42;99092.38;;;17.66;100.00
25658;BME280;13517;59.320;18.042;2023-09-19T08:17:08;99091.56;;;17.66;100.00
25658;BME280;13517;59.320;18.042;2023-09-19T08:19:34;99087.78;;;17.67;100.00
25658;BME280;13517;59.320;18.042;2023-09-19T08:22:00;99091.28;;;17.76;100.00
25658;BME280;13517;59.320;18.042;2023-09-19T08:24:27;99089.78;;;17.73;100.00
25658;BME280;13517;59.320;18.042;2023-09-19T08:26:57;99084.78;;;17.77;100.00
25658;BME280;13517;59.320;18.042;2023-09-19T08:29:24;99092.69;;;17.87;100.00
25658;BME280;13517;59.320;18.042;2023-09-19T08:31:56;99089.97;;;17.87;100.00
25658;BME280;13517;59.320;18.042;2023-09-19T08:34:23;99090.44;;;17.90;100.00
25658;BME280;13517;59.320;18.042;2023-09-19T08:36:52;99103.88;;;17.92;100.00
25658;BME280;13517;59.320;18.042;2023-09-19T08:39:22;99065.56;;;17.85;100.00
25658;BME280;13517;59.320;18.042;2023-09-19T08:41:47;99082.03;;;17.92;100.00
25658;BME280;13517;59.320;18.042;2023-09-19T08:44:13;99084.19;;;17.96;100.00
25658;BME280;13517;59.320;18.042;2023-09-19T08:46:41;99070.81;;;18.02;100.00
25658;BME280;13517;59.320;18.042;2023-09-19T08:52:37;99063.31;;;18.19;100.00
25658;BME280;13517;59.320;18.042;2023-09-19T08:55:02;99064.06;;;18.28;100.00
25658;BME280;13517;59.320;18.042;2023-09-19T08:57:36;99070.63;;;18.48;100.00
25658;BME280;13517;59.320;18.042;2023-09-19T09:00:05;99069.84;;;18.55;100.00
25658;BME280;13517;59.320;18.042;2023-09-19T09:02:37;99068.69;;;18.64;100.00
25658;BME280;13517;59.320;18.042;2023-09-19T09:05:05;99047.66;;;18.64;100.00
25658;BME280;13517;59.320;18.042;2023-09-19T09:07:32;99038.47;;;18.72;100.00
25658;BME280;13517;59.320;18.042;2023-09-19T09:10:00;99044.34;;;18.91;100.00
25658;BME280;13517;59.320;18.042;2023-09-19T09:12:27;99030.34;;;19.01;100.00
25658;BME280;13517;59.320;18.042;2023-09-19T09:14:52;99023.44;;;19.05;100.00
25658;BME280;13517;59.320;18.042;2023-09-19T09:17:18;99036.47;;;19.25;100.00
25658;BME280;13517;59.320;18.042;2023-09-19T09:19:47;99015.75;;;19.15;100.00
25658;BME280;13517;59.320;18.042;2023-09-19T09:22:13;99033.97;;;19.30;100.00
25658;BME280;13517;59.320;18.042;2023-09-19T09:24:51;99031.09;;;19.38;100.00
25658;BME280;13517;59.320;18.042;2023-09-19T09:27:19;99010.50;;;19.42;100.00
25658;BME280;13517;59.320;18.042;2023-09-19T09:29:47;99028.72;;;19.57;100.00
25658;BME280;13517;59.320;18.042;2023-09-19T09:32:18;99005.31;;;19.54;100.00
25658;BME280;13517;59.320;18.042;2023-09-19T09:34:44;99003.84;;;19.58;100.00
25658;BME280;13517;59.320;18.042;2023-09-19T09:37:14;99001.16;;;19.65;100.00
25658;BME280;13517;59.320;18.042;2023-09-19T09:39:49;99028.03;;;19.83;100.00
25658;BME280;13517;59.320;18.042;2023-09-19T09:42:36;99025.72;;;19.87;100.00
25658;BME280;13517;59.320;18.042;2023-09-19T09:48:02;99032.34;;;19.99;100.00
25658;BME280;13517;59.320;18.042;2023-09-19T09:50:46;99038.81;;;19.92;100.00
25658;BME280;13517;59.320;18.042;2023-09-19T09:53:25;99028.47;;;19.87;100.00
25658;BME280;13517;59.320;18.042;2023-09-19T09:58:25;98965.03;;;19.48;100.00
25658;BME280;13517;59.320;18.042;2023-09-19T10:00:55;99004.97;;;19.71;100.00
25658;BME280;13517;59.320;18.042;2023-09-19T10:03:31;99034.31;;;19.77;100.00
25658;BME280;13517;59.320;18.042;2023-09-19T10:05:57;99018.84;;;19.69;100.00
25658;BME280;13517;59.320;18.042;2023-09-19T10:08:23;99005.34;;;19.61;100.00
25658;BME280;13517;59.320;18.042;2023-09-19T10:10:49;99017.16;;;19.68;100.00
25658;BME280;13517;59.320;18.042;2023-09-19T10:13:29;99014.94;;;19.79;100.00
25658;BME280;13517;59.320;18.042;2023-09-19T10:15:58;99018.94;;;19.83;100.00
25658;BME280;13517;59.320;18.042;2023-09-19T10:18:25;99012.03;;;19.87;100.00
25658;BME280;13517;59.320;18.042;2023-09-19T10:20:52;99008.84;;;19.90;100.00
25658;BME280;13517;59.320;18.042;2023-09-19T10:23:19;98997.97;;;19.97;100.00
25658;BME280;13517;59.320;18.042;2023-09-19T10:25:49;99007.06;;;20.04;100.00
25658;BME280;13517;59.320;18.042;2023-09-19T10:28:17;99010.25;;;20.08;100.00
25658;BME280;13517;59.320;18.042;2023-09-19T10:30:51;98977.91;;;19.90;100.00
25658;BME280;13517;59.320;18.042;2023-09-19T10:33:18;99011.13;;;20.15;100.00
25658;BME280;13517;59.320;18.042;2023-09-19T10:35:49;98941.16;;;19.77;100.00
25658;BME280;13517;59.320;18.042;2023-09-19T10:38:23;98996.59;;;20.21;100.00
25658;BME280;13517;59.320;18.042;2023-09-19T10:40:53;98997.66;;;20.34;100.00
25658;BME280;13517;59.320;18.042;2023-09-19T10:43:20;98999.19;;;20.43;100.00
25658;BME280;13517;59.320;18.042;2023-09-19T10:45:47;98988.63;;;20.40;100.00
25658;BME280;13517;59.320;18.042;2023-09-19T10:48:15;98932.84;;;19.99;100.00
25658;BME280;13517;59.320;18.042;2023-09-19T10:50:48;99005.06;;;20.40;100.00
25658;BME280;13517;59.320;18.042;2023-09-19T10:53:16;99008.22;;;20.30;100.00
25658;BME280;13517;59.320;18.042;2023-09-19T10:55:50;99002.22;;;20.06;100.00
25658;BME280;13517;59.320;18.042;2023-09-19T10:58:31;98987.66;;;19.99;100.00
25658;BME280;13517;59.320;18.042;2023-09-19T11:01:02;98978.81;;;20.04;100.00
25658;BME280;13517;59.320;18.042;2023-09-19T11:03:31;98975.50;;;20.15;100.00
25658;BME280;13517;59.320;18.042;2023-09-19T11:09:03;98989.69;;;20.39;100.00
25658;BME280;13517;59.320;18.042;2023-09-19T11:11:48;99001.28;;;20.41;100.00
25658;BME280;13517;59.320;18.042;2023-09-19T11:30:40;98965.84;;;20.46;100.00
25658;BME280;13517;59.320;18.042;2023-09-19T11:33:19;99003.00;;;20.49;100.00
25658;BME280;13517;59.320;18.042;2023-09-19T11:36:10;98986.06;;;20.32;100.00
25658;BME280;13517;59.320;18.042;2023-09-19T11:46:13;98981.53;;;19.97;100.00
25658;BME280;13517;59.320;18.042;2023-09-19T11:48:43;98966.00;;;19.76;99.57
25658;BME280;13517;59.320;18.042;2023-09-19T11:51:20;98967.69;;;19.70;93.52
25658;BME280;13517;59.320;18.042;2023-09-19T11:53:53;98961.94;;;19.58;92.26
25658;BME280;13517;59.320;18.042;2023-09-19T11:56:23;98979.19;;;19.58;89.16
25658;BME280;13517;59.320;18.042;2023-09-19T11:58:53;98972.88;;;19.58;88.46
25658;BME280;13517;59.320;18.042;2023-09-19T12:01:24;98956.19;;;19.46;88.14
25658;BME280;13517;59.320;18.042;2023-09-19T12:03:54;98958.91;;;19.46;87.62
25658;BME280;13517;59.320;18.042;2023-09-19T12:06:22;98960.81;;;19.52;86.99
25658;BME280;13517;59.320;18.042;2023-09-19T12:08:48;98948.78;;;19.46;86.30
25658;BME280;13517;59.320;18.042;2023-09-19T12:11:16;98948.63;;;19.55;85.57
25658;BME280;13517;59.320;18.042;2023-09-19T12:13:43;98968.03;;;19.60;84.95
25658;BME280;13517;59.320;18.042;2023-09-19T12:16:20;98993.91;;;19.86;85.48
25658;BME280;13517;59.320;18.042;2023-09-19T12:18:50;99002.91;;;19.80;88.38
25658;BME280;13517;59.320;18.042;2023-09-19T12:21:31;98975.38;;;19.53;89.59
25658;BME280;13517;59.320;18.042;2023-09-19T12:26:39;98992.16;;;19.78;90.26
25658;BME280;13517;59.320;18.042;2023-09-19T12:29:11;99000.19;;;19.80;90.07
25658;BME280;13517;59.320;18.042;2023-09-19T12:31:50;98987.31;;;19.80;85.95
25658;BME280;13517;59.320;18.042;2023-09-19T12:34:21;98990.91;;;19.81;82.45
25658;BME280;13517;59.320;18.042;2023-09-19T12:36:47;98962.19;;;19.63;82.25
25658;BME280;13517;59.320;18.042;2023-09-19T12:39:23;98969.25;;;19.51;82.61
25658;BME280;13517;59.320;18.042;2023-09-19T12:41:52;98982.78;;;19.59;82.71
25658;BME280;13517;59.320;18.042;2023-09-19T12:44:19;98964.63;;;19.51;81.66
25658;BME280;13517;59.320;18.042;2023-09-19T12:46:44;98976.44;;;19.52;79.59
25658;BME280;13517;59.320;18.042;2023-09-19T12:49:19;98957.97;;;19.32;73.57
25658;BME280;13517;59.320;18.042;2023-09-19T12:51:49;98981.28;;;19.50;73.01
25658;BME280;13517;59.320;18.042;2023-09-19T12:54:14;98961.78;;;19.38;73.55
25658;BME280;13517;59.320;18.042;2023-09-19T12:56:42;98989.38;;;19.36;72.56
25658;BME280;13517;59.320;18.042;2023-09-19T12:59:13;98975.00;;;19.27;72.04
25658;BME280;13517;59.320;18.042;2023-09-19T13:01:40;98974.56;;;19.24;71.28
25658;BME280;13517;59.320;18.042;2023-09-19T13:04:21;98989.44;;;19.14;67.18
25658;BME280;13517;59.320;18.042;2023-09-19T13:06:55;98985.66;;;19.15;70.98
25658;BME280;13517;59.320;18.042;2023-09-19T13:09:26;98990.47;;;19.13;71.30
25658;BME280;13517;59.320;18.042;2023-09-19T13:11:59;98989.81;;;19.11;72.20
25658;BME280;13517;59.320;18.042;2023-09-19T13:14:28;98995.75;;;19.15;71.97
25658;BME280;13517;59.320;18.042;2023-09-19T13:17:04;98973.81;;;19.08;71.40
25658;BME280;13517;59.320;18.042;2023-09-19T13:22:42;99008.72;;;19.06;70.52
25658;BME280;13517;59.320;18.042;2023-09-19T13:25:21;98985.66;;;18.94;70.63
25658;BME280;13517;59.320;18.042;2023-09-19T13:27:54;99014.00;;;19.08;72.26
25658;BME280;13517;59.320;18.042;2023-09-19T13:30:27;99002.72;;;18.96;70.47
25658;BME280;13517;59.320;18.042;2023-09-19T13:33:10;98999.50;;;18.85;67.10
25658;BME280;13517;59.320;18.042;2023-09-19T13:35:36;98970.56;;;18.76;67.29
25658;BME280;13517;59.320;18.042;2023-09-19T13:38:03;98982.41;;;18.61;65.10
25658;BME280;13517;59.320;18.042;2023-09-19T13:40:29;99018.50;;;18.72;64.26
25658;BME280;13517;59.320;18.042;2023-09-19T13:43:00;99018.16;;;18.60;63.49